sensor_id;sensor_type;location;lat;lon;timestamp;pressure;altitude;pressure_sealevel;temperature;humidity
59939;BME280;45801;51.810;19.444;2022-08-23T00:01:35;98863.33;;;20.85;78.20
59939;BME280;45801;51.810;19.444;2022-08-23T00:04:07;98861.73;;;20.86;78.19
59939;BME280;45801;51.810;19.444;2022-08-23T00:06:33;98859.42;;;20.86;78.32
59939;BME280;45801;51.810;19.444;2022-08-23T00:09:00;98858.17;;;20.87;78.00
59939;BME280;45801;51.810;19.444;2022-08-23T00:13:58;98863.52;;;20.84;77.89
59939;BME280;45801;51.810;19.444;2022-08-23T00:16:24;98864.41;;;20.83;77.84
59939;BME280;45801;51.810;19.444;2022-08-23T00:18:50;98865.67;;;20.81;77.91
59939;BME280;45801;51.810;19.444;2022-08-23T00:21:16;98868.34;;;20.81;77.89
59939;BME280;45801;51.810;19.444;2022-08-23T00:23:42;98877.42;;;20.81;77.91
59939;BME280;45801;51.810;19.444;2022-08-23T00:26:08;98878.13;;;20.80;77.79
59939;BME280;45801;51.810;19.444;2022-08-23T00:28:34;98876.01;;;20.77;78.00
59939;BME280;45801;51.810;19.444;2022-08-23T00:31:00;98872.28;;;20.76;78.06
59939;BME280;45801;51.810;19.444;2022-08-23T00:33:26;98874.23;;;20.77;78.25
59939;BME280;45801;51.810;19.444;2022-08-23T00:35:52;98878.33;;;20.77;77.87
59939;BME280;45801;51.810;19.444;2022-08-23T00:38:17;98883.31;;;20.77;77.64
59939;BME280;45801;51.810;19.444;2022-08-23T00:40:46;98883.48;;;20.78;77.78
59939;BME280;45801;51.810;19.444;2022-08-23T00:43:15;98886.66;;;20.82;77.58
59939;BME280;45801;51.810;19.444;2022-08-23T00:49:03;98900.34;;;20.92;77.52
59939;BME280;45801;51.810;19.444;2022-08-23T00:52:00;98902.81;;;20.97;77.37
59939;BME280;45801;51.810;19.444;2022-08-23T00:54:29;98911.88;;;21.03;77.44
59939;BME280;45801;51.810;19.444;2022-08-23T00:56:57;98919.68;;;21.10;77.38
59939;BME280;45801;51.810;19.444;2022-08-23T00:59:24;98916.98;;;21.14;76.88
59939;BME280;45801;51.810;19.444;2022-08-23T01:01:51;98911.48;;;21.10;76.81
59939;BME280;45801;51.810;19.444;2022-08-23T01:04:17;98915.59;;;21.08;76.99
59939;BME280;45801;51.810;19.444;2022-08-23T01:06:50;98914.70;;;21.09;76.92
59939;BME280;45801;51.810;19.444;2022-08-23T01:09:20;98917.56;;;21.05;76.86
59939;BME280;45801;51.810;19.444;2022-08-23T01:11:52;98916.13;;;21.05;77.13
59939;BME280;45801;51.810;19.444;2022-08-23T01:14:51;98915.96;;;21.04;77.02
59939;BME280;45801;51.810;19.444;2022-08-23T01:17:34;98916.68;;;21.01;77.48
59939;BME280;45801;51.810;19.444;2022-08-23T01:20:08;98922.90;;;21.09;77.41
59939;BME280;45801;51.810;19.444;2022-08-23T01:22:40;98926.96;;;21.14;77.19
59939;BME280;45801;51.810;19.444;2022-08-23T01:25:11;98928.00;;;21.21;77.48
59939;BME280;45801;51.810;19.444;2022-08-23T01:27:39;98928.52;;;21.24;77.37
59939;BME280;45801;51.810;19.444;2022-08-23T01:30:08;98932.24;;;21.25;77.12
59939;BME280;45801;51.810;19.444;2022-08-23T01:32:40;98925.30;;;21.26;76.65
59939;BME280;45801;51.810;19.444;2022-08-23T01:35:08;98918.89;;;21.23;76.42
59939;BME280;45801;51.810;19.444;2022-08-23T01:37:33;98907.17;;;21.18;76.60
59939;BME280;45801;51.810;19.444;2022-08-23T01:39:59;98902.73;;;21.16;76.57
59939;BME280;45801;51.810;19.444;2022-08-23T01:42:25;98900.42;;;21.16;76.67
59939;BME280;45801;51.810;19.444;2022-08-23T01:44:51;98896.33;;;21.16;76.68
59939;BME280;45801;51.810;19.444;2022-08-23T01:47:16;98895.59;;;21.18;76.99
59939;BME280;45801;51.810;19.444;2022-08-23T01:49:42;98893.45;;;21.19;76.49
59939;BME280;45801;51.810;19.444;2022-08-23T01:52:08;98891.33;;;21.17;76.56
59939;BME280;45801;51.810;19.444;2022-08-23T01:54:34;98890.27;;;21.16;76.80
59939;BME280;45801;51.810;19.444;2022-08-23T01:56:59;98888.45;;;21.19;76.56
59939;BME280;45801;51.810;19.444;2022-08-23T01:59:25;98883.34;;;21.14;76.33
59939;BME280;45801;51.810;19.444;2022-08-23T02:01:51;98886.37;;;21.14;76.44
59939;BME280;45801;51.810;19.444;2022-08-23T02:04:18;98886.52;;;21.18;76.56
59939;BME280;45801;51.810;19.444;2022-08-23T02:06:44;98890.63;;;21.16;76.58
59939;BME280;45801;51.810;19.444;2022-08-23T02:09:10;98890.80;;;21.16;76.61
59939;BME280;45801;51.810;19.444;2022-08-23T02:11:40;98889.92;;;21.14;76.84
59939;BME280;45801;51.810;19.444;2022-08-23T02:14:12;98898.65;;;21.13;76.65
59939;BME280;45801;51.810;19.444;2022-08-23T02:16:51;98918.42;;;21.14;76.99
59939;BME280;45801;51.810;19.444;2022-08-23T02:19:18;98914.85;;;21.14;76.84
59939;BME280;45801;51.810;19.444;2022-08-23T02:21:45;98914.86;;;21.11;76.60
59939;BME280;45801;51.810;19.444;2022-08-23T02:24:15;98916.66;;;21.06;76.60
59939;BME280;45801;51.810;19.444;2022-08-23T02:26:45;98914.90;;;21.01;76.56
59939;BME280;45801;51.810;19.444;2022-08-23T02:29:12;98917.23;;;20.98;76.82
59939;BME280;45801;51.810;19.444;2022-08-23T02:31:39;98922.03;;;20.98;77.04
59939;BME280;45801;51.810;19.444;2022-08-23T02:34:04;98927.89;;;21.02;77.13
59939;BME280;45801;51.810;19.444;2022-08-23T02:36:31;98937.83;;;21.13;77.38
59939;BME280;45801;51.810;19.444;2022-08-23T02:38:57;98943.48;;;21.21;76.93
59939;BME280;45801;51.810;19.444;2022-08-23T02:41:23;98932.61;;;21.24;76.60
59939;BME280;45801;51.810;19.444;2022-08-23T02:43:53;98931.56;;;21.19;76.96
59939;BME280;45801;51.810;19.444;2022-08-23T02:46:20;98938.90;;;21.13;76.88
59939;BME280;45801;51.810;19.444;2022-08-23T02:48:46;98939.10;;;21.07;77.05
59939;BME280;45801;51.810;19.444;2022-08-23T02:51:12;98941.62;;;21.00;77.38
59939;BME280;45801;51.810;19.444;2022-08-23T02:53:38;98940.03;;;20.95;77.39
59939;BME280;45801;51.810;19.444;2022-08-23T02:56:05;98937.73;;;20.91;77.49
59939;BME280;45801;51.810;19.444;2022-08-23T02:58:30;98938.09;;;20.87;77.81
59939;BME280;45801;51.810;19.444;2022-08-23T03:00:56;98937.75;;;20.82;77.93
59939;BME280;45801;51.810;19.444;2022-08-23T03:03:22;98933.66;;;20.78;78.03
59939;BME280;45801;51.810;19.444;2022-08-23T03:05:49;98935.81;;;20.75;78.37
59939;BME280;45801;51.810;19.444;2022-08-23T03:08:16;98938.13;;;20.73;78.41
59939;BME280;45801;51.810;19.444;2022-08-23T03:10:44;98923.73;;;20.70;78.45
59939;BME280;45801;51.810;19.444;2022-08-23T03:13:10;98910.55;;;20.65;78.45
59939;BME280;45801;51.810;19.444;2022-08-23T03:15:37;98912.86;;;20.61;78.57
59939;BME280;45801;51.810;19.444;2022-08-23T03:18:04;98911.10;;;20.58;78.91
59939;BME280;45801;51.810;19.444;2022-08-23T03:20:29;98908.77;;;20.57;78.80
59939;BME280;45801;51.810;19.444;2022-08-23T03:22:55;98905.40;;;20.53;78.91
59939;BME280;45801;51.810;19.444;2022-08-23T03:25:21;98908.97;;;20.50;78.92
59939;BME280;45801;51.810;19.444;2022-08-23T03:27:47;98912.36;;;20.47;79.18
59939;BME280;45801;51.810;19.444;2022-08-23T03:30:13;98919.13;;;20.46;79.33
59939;BME280;45801;51.810;19.444;2022-08-23T03:32:39;98923.56;;;20.44;79.46
59939;BME280;45801;51.810;19.444;2022-08-23T03:35:05;98928.02;;;20.42;79.52
59939;BME280;45801;51.810;19.444;2022-08-23T03:37:33;98931.58;;;20.42;79.36
59939;BME280;45801;51.810;19.444;2022-08-23T03:39:59;98931.94;;;20.41;79.76
59939;BME280;45801;51.810;19.444;2022-08-23T03:42:25;98934.96;;;20.42;79.88
59939;BME280;45801;51.810;19.444;2022-08-23T03:44:50;98930.32;;;20.44;79.73
59939;BME280;45801;51.810;19.444;2022-08-23T03:47:16;98934.58;;;20.45;79.91
59939;BME280;45801;51.810;19.444;2022-08-23T03:49:42;98932.29;;;20.45;80.11
59939;BME280;45801;51.810;19.444;2022-08-23T03:52:08;98926.23;;;20.45;80.13
59939;BME280;45801;51.810;19.444;2022-08-23T03:54:34;98923.21;;;20.43;80.08
59939;BME280;45801;51.810;19.444;2022-08-23T03:57:03;98919.30;;;20.39;79.74
59939;BME280;45801;51.810;19.444;2022-08-23T03:59:31;98917.17;;;20.36;80.03
59939;BME280;45801;51.810;19.444;2022-08-23T04:01:58;98919.30;;;20.35;79.99
59939;BME280;45801;51.810;19.444;2022-08-23T04:04:24;98914.85;;;20.33;79.90
59939;BME280;45801;51.810;19.444;2022-08-23T04:06:49;98916.82;;;20.32;79.92
59939;BME280;45801;51.810;19.444;2022-08-23T04:09:15;98913.61;;;20.32;80.16
59939;BME280;45801;51.810;19.444;2022-08-23T04:11:42;98908.81;;;20.28;80.24
59939;BME280;45801;51.810;19.444;2022-08-23T04:14:08;98903.66;;;20.24;80.18
59939;BME280;45801;51.810;19.444;2022-08-23T04:16:35;98896.02;;;20.22;80.65
59939;BME280;45801;51.810;19.444;2022-08-23T04:19:06;98903.48;;;20.21;80.47
59939;BME280;45801;51.810;19.444;2022-08-23T04:21:34;98903.86;;;20.20;80.89
59939;BME280;45801;51.810;19.444;2022-08-23T04:24:01;98902.79;;;20.18;80.86
59939;BME280;45801;51.810;19.444;2022-08-23T04:26:27;98902.08;;;20.18;80.63
59939;BME280;45801;51.810;19.444;2022-08-23T04:28:53;98903.14;;;20.19;80.78
59939;BME280;45801;51.810;19.444;2022-08-23T04:31:19;98904.74;;;20.21;80.76
59939;BME280;45801;51.810;19.444;2022-08-23T04:33:45;98905.63;;;20.22;80.65
59939;BME280;45801;51.810;19.444;2022-08-23T04:36:12;98907.94;;;20.23;80.80
59939;BME280;45801;51.810;19.444;2022-08-23T04:38:38;98906.52;;;20.25;80.98
59939;BME280;45801;51.810;19.444;2022-08-23T04:41:04;98905.63;;;20.26;80.80
59939;BME280;45801;51.810;19.444;2022-08-23T04:43:48;98904.20;;;20.25;80.99
59939;BME280;45801;51.810;19.444;2022-08-23T04:46:15;98910.78;;;20.26;80.79
59939;BME280;45801;51.810;19.444;2022-08-23T04:48:44;98908.82;;;20.24;80.64
59939;BME280;45801;51.810;19.444;2022-08-23T04:51:11;98909.73;;;20.21;80.51
59939;BME280;45801;51.810;19.444;2022-08-23T04:53:38;98910.27;;;20.20;80.73
59939;BME280;45801;51.810;19.444;2022-08-23T04:56:05;98918.27;;;20.19;80.93
59939;BME280;45801;51.810;19.444;2022-08-23T04:58:32;98923.42;;;20.18;81.07
59939;BME280;45801;51.810;19.444;2022-08-23T05:00:59;98925.73;;;20.17;81.15
59939;BME280;45801;51.810;19.444;2022-08-23T05:03:27;98925.56;;;20.19;81.10
59939;BME280;45801;51.810;19.444;2022-08-23T05:05:55;98928.58;;;20.21;81.08
59939;BME280;45801;51.810;19.444;2022-08-23T05:08:23;98931.23;;;20.23;81.13
59939;BME280;45801;51.810;19.444;2022-08-23T05:10:50;98936.55;;;20.24;81.21
59939;BME280;45801;51.810;19.444;2022-08-23T05:13:15;98934.27;;;20.25;80.82
59939;BME280;45801;51.810;19.444;2022-08-23T05:15:42;98931.25;;;20.24;80.92
59939;BME280;45801;51.810;19.444;2022-08-23T05:18:09;98937.10;;;20.26;81.37
59939;BME280;45801;51.810;19.444;2022-08-23T05:20:35;98941.19;;;20.28;81.18
59939;BME280;45801;51.810;19.444;2022-08-23T05:23:01;98941.89;;;20.29;81.13
59939;BME280;45801;51.810;19.444;2022-08-23T05:25:29;98940.48;;;20.30;81.16
59939;BME280;45801;51.810;19.444;2022-08-23T05:28:17;98945.82;;;20.31;81.27
59939;BME280;45801;51.810;19.444;2022-08-23T05:30:53;98941.73;;;20.35;81.09
59939;BME280;45801;51.810;19.444;2022-08-23T05:33:19;98942.78;;;20.35;81.20
59939;BME280;45801;51.810;19.444;2022-08-23T05:35:45;98937.61;;;20.34;80.92
59939;BME280;45801;51.810;19.444;2022-08-23T05:38:11;98941.17;;;20.34;80.87
59939;BME280;45801;51.810;19.444;2022-08-23T05:40:37;98943.50;;;20.34;80.79
59939;BME280;45801;51.810;19.444;2022-08-23T05:43:02;98943.68;;;20.32;81.10
59939;BME280;45801;51.810;19.444;2022-08-23T05:45:28;98939.05;;;20.32;81.03
59939;BME280;45801;51.810;19.444;2022-08-23T05:47:54;98939.58;;;20.30;81.37
59939;BME280;45801;51.810;19.444;2022-08-23T05:50:19;98941.19;;;20.30;81.41
59939;BME280;45801;51.810;19.444;2022-08-23T05:52:47;98939.59;;;20.32;81.65
59939;BME280;45801;51.810;19.444;2022-08-23T05:55:12;98940.83;;;20.33;81.55
59939;BME280;45801;51.810;19.444;2022-08-23T05:57:38;98935.31;;;20.34;81.55
59939;BME280;45801;51.810;19.444;2022-08-23T06:00:07;98946.70;;;20.36;81.51
59939;BME280;45801;51.810;19.444;2022-08-23T06:02:39;98962.00;;;20.38;81.79
59939;BME280;45801;51.810;19.444;2022-08-23T06:05:05;98951.51;;;20.39;81.80
59939;BME280;45801;51.810;19.444;2022-08-23T06:07:33;98923.41;;;20.36;82.11
59939;BME280;45801;51.810;19.444;2022-08-23T06:09:59;98936.20;;;20.36;81.86
59939;BME280;45801;51.810;19.444;2022-08-23T06:12:25;98940.30;;;20.38;81.92
59939;BME280;45801;51.810;19.444;2022-08-23T06:14:51;98944.38;;;20.43;82.26
59939;BME280;45801;51.810;19.444;2022-08-23T06:17:16;98943.84;;;20.47;82.58
59939;BME280;45801;51.810;19.444;2022-08-23T06:19:42;98941.88;;;20.50;82.39
59939;BME280;45801;51.810;19.444;2022-08-23T06:22:09;98944.73;;;20.55;82.54
59939;BME280;45801;51.810;19.444;2022-08-23T06:24:35;98945.27;;;20.58;82.71
59939;BME280;45801;51.810;19.444;2022-08-23T06:27:01;98945.60;;;20.61;82.78
59939;BME280;45801;51.810;19.444;2022-08-23T06:29:27;98947.73;;;20.64;82.96
59939;BME280;45801;51.810;19.444;2022-08-23T06:31:53;98950.95;;;20.66;82.79
59939;BME280;45801;51.810;19.444;2022-08-23T06:36:51;98954.16;;;20.69;82.93
59939;BME280;45801;51.810;19.444;2022-08-23T06:39:18;98964.48;;;20.72;83.02
59939;BME280;45801;51.810;19.444;2022-08-23T06:41:45;98968.38;;;20.77;83.06
59939;BME280;45801;51.810;19.444;2022-08-23T06:44:14;98968.55;;;20.81;82.90
59939;BME280;45801;51.810;19.444;2022-08-23T06:46:40;98971.56;;;20.86;83.09
59939;BME280;45801;51.810;19.444;2022-08-23T06:49:07;98971.55;;;20.88;82.92
59939;BME280;45801;51.810;19.444;2022-08-23T06:51:47;98974.77;;;20.90;82.94
59939;BME280;45801;51.810;19.444;2022-08-23T06:54:15;98984.02;;;20.93;83.16
59939;BME280;45801;51.810;19.444;2022-08-23T06:56:42;98981.69;;;20.96;83.05
59939;BME280;45801;51.810;19.444;2022-08-23T06:59:08;98981.69;;;20.97;83.32
59939;BME280;45801;51.810;19.444;2022-08-23T07:04:19;98973.46;;;21.03;83.30
59939;BME280;45801;51.810;19.444;2022-08-23T07:06:46;98973.29;;;21.05;83.00
59939;BME280;45801;51.810;19.444;2022-08-23T07:09:12;98977.20;;;21.06;83.35
59939;BME280;45801;51.810;19.444;2022-08-23T07:11:39;98983.78;;;21.06;83.17
59939;BME280;45801;51.810;19.444;2022-08-23T07:14:08;98986.28;;;21.06;83.34
59939;BME280;45801;51.810;19.444;2022-08-23T07:16:38;98990.20;;;21.08;83.42
59939;BME280;45801;51.810;19.444;2022-08-23T07:19:05;98988.42;;;21.10;83.31
59939;BME280;45801;51.810;19.444;2022-08-23T07:21:31;98989.30;;;21.12;83.31
59939;BME280;45801;51.810;19.444;2022-08-23T07:23:57;98996.42;;;21.15;83.27
59939;BME280;45801;51.810;19.444;2022-08-23T07:26:24;98995.52;;;21.16;83.28
59939;BME280;45801;51.810;19.444;2022-08-23T07:28:50;98996.22;;;21.19;83.30
59939;BME280;45801;51.810;19.444;2022-08-23T07:31:28;98997.80;;;21.22;83.64
59939;BME280;45801;51.810;19.444;2022-08-23T07:33:57;98999.21;;;21.26;83.84
59939;BME280;45801;51.810;19.444;2022-08-23T07:36:24;99004.90;;;21.31;83.71
59939;BME280;45801;51.810;19.444;2022-08-23T07:38:51;99002.92;;;21.34;83.64
59939;BME280;45801;51.810;19.444;2022-08-23T07:41:18;99006.66;;;21.39;83.71
59939;BME280;45801;51.810;19.444;2022-08-23T07:43:45;98999.88;;;21.41;83.39
59939;BME280;45801;51.810;19.444;2022-08-23T07:46:11;98995.61;;;21.42;83.55
59939;BME280;45801;51.810;19.444;2022-08-23T07:48:38;98993.63;;;21.44;83.66
59939;BME280;45801;51.810;19.444;2022-08-23T07:51:08;98993.96;;;21.47;83.61
59939;BME280;45801;51.810;19.444;2022-08-23T07:53:34;98998.44;;;21.51;83.68
59939;BME280;45801;51.810;19.444;2022-08-23T07:56:05;98998.96;;;21.53;83.67
59939;BME280;45801;51.810;19.444;2022-08-23T07:58:31;99005.39;;;21.54;83.61
59939;BME280;45801;51.810;19.444;2022-08-23T08:01:18;99009.13;;;21.54;83.75
59939;BME280;45801;51.810;19.444;2022-08-23T08:03:46;99007.69;;;21.54;83.66
59939;BME280;45801;51.810;19.444;2022-08-23T08:06:22;99008.05;;;21.56;83.80
59939;BME280;45801;51.810;19.444;2022-08-23T08:08:49;99007.86;;;21.59;83.64
59939;BME280;45801;51.810;19.444;2022-08-23T08:11:19;99007.30;;;21.63;83.89
59939;BME280;45801;51.810;19.444;2022-08-23T08:13:46;99004.97;;;21.65;84.01
59939;BME280;45801;51.810;19.444;2022-08-23T08:16:43;99002.64;;;21.68;84.15
59939;BME280;45801;51.810;19.444;2022-08-23T08:19:13;99002.07;;;21.73;84.31
59939;BME280;45801;51.810;19.444;2022-08-23T08:21:42;99007.58;;;21.79;84.49
59939;BME280;45801;51.810;19.444;2022-08-23T08:24:12;99007.54;;;21.84;84.23
59939;BME280;45801;51.810;19.444;2022-08-23T08:26:40;99012.88;;;21.89;84.32
59939;BME280;45801;51.810;19.444;2022-08-23T08:29:07;99016.95;;;21.92;84.23
59939;BME280;45801;51.810;19.444;2022-08-23T08:31:36;99024.59;;;21.96;84.43
59939;BME280;45801;51.810;19.444;2022-08-23T08:34:05;99031.48;;;22.05;84.54
59939;BME280;45801;51.810;19.444;2022-08-23T08:36:38;99031.42;;;22.13;84.53
59939;BME280;45801;51.810;19.444;2022-08-23T08:39:07;99034.95;;;22.20;84.59
59939;BME280;45801;51.810;19.444;2022-08-23T08:41:46;99031.36;;;22.25;84.50
59939;BME280;45801;51.810;19.444;2022-08-23T08:46:55;99034.14;;;22.39;84.44
59939;BME280;45801;51.810;19.444;2022-08-23T08:51:58;99037.42;;;22.52;84.44
59939;BME280;45801;51.810;19.444;2022-08-23T08:54:28;99040.42;;;22.57;84.21
59939;BME280;45801;51.810;19.444;2022-08-23T08:56:57;99038.06;;;22.61;84.69
59939;BME280;45801;51.810;19.444;2022-08-23T08:59:28;99038.19;;;22.67;84.77
59939;BME280;45801;51.810;19.444;2022-08-23T09:01:58;99036.55;;;22.71;84.55
59939;BME280;45801;51.810;19.444;2022-08-23T09:04:24;99034.92;;;22.73;84.53
59939;BME280;45801;51.810;19.444;2022-08-23T09:07:06;99037.06;;;22.74;84.12
59939;BME280;45801;51.810;19.444;2022-08-23T09:10:06;99037.75;;;22.76;83.75
59939;BME280;45801;51.810;19.444;2022-08-23T09:12:45;99042.92;;;22.77;83.21
59939;BME280;45801;51.810;19.444;2022-08-23T09:15:40;99043.44;;;22.79;82.84
59939;BME280;45801;51.810;19.444;2022-08-23T09:18:15;99045.39;;;22.81;82.42
59939;BME280;45801;51.810;19.444;2022-08-23T09:20:50;99044.63;;;22.86;81.96
59939;BME280;45801;51.810;19.444;2022-08-23T09:23:20;99045.48;;;22.90;82.22
59939;BME280;45801;51.810;19.444;2022-08-23T09:25:55;99044.90;;;22.95;82.05
59939;BME280;45801;51.810;19.444;2022-08-23T09:28:22;99045.21;;;23.00;81.91
59939;BME280;45801;51.810;19.444;2022-08-23T09:30:51;99046.95;;;23.04;82.20
59939;BME280;45801;51.810;19.444;2022-08-23T09:33:42;99046.56;;;23.06;82.38
59939;BME280;45801;51.810;19.444;2022-08-23T09:36:33;99045.13;;;23.07;82.35
59939;BME280;45801;51.810;19.444;2022-08-23T09:39:03;99046.55;;;23.11;82.13
59939;BME280;45801;51.810;19.444;2022-08-23T09:41:36;99048.68;;;23.14;81.46
59939;BME280;45801;51.810;19.444;2022-08-23T09:44:05;99047.77;;;23.14;80.92
59939;BME280;45801;51.810;19.444;2022-08-23T09:46:36;99049.02;;;23.15;81.31
59939;BME280;45801;51.810;19.444;2022-08-23T09:49:24;99044.68;;;23.20;81.02
59939;BME280;45801;51.810;19.444;2022-08-23T09:51:52;99043.52;;;23.26;80.40
59939;BME280;45801;51.810;19.444;2022-08-23T09:54:40;99043.14;;;23.30;80.07
59939;BME280;45801;51.810;19.444;2022-08-23T09:57:08;99045.34;;;23.40;80.30
59939;BME280;45801;51.810;19.444;2022-08-23T09:59:44;99047.63;;;23.43;79.84
59939;BME280;45801;51.810;19.444;2022-08-23T10:02:16;99049.95;;;23.42;78.99
59939;BME280;45801;51.810;19.444;2022-08-23T10:07:22;99048.48;;;23.46;79.01
59939;BME280;45801;51.810;19.444;2022-08-23T10:09:49;99047.56;;;23.50;79.47
59939;BME280;45801;51.810;19.444;2022-08-23T10:12:17;99053.42;;;23.52;79.57
59939;BME280;45801;51.810;19.444;2022-08-23T10:14:42;99062.52;;;23.53;79.14
59939;BME280;45801;51.810;19.444;2022-08-23T10:17:31;99068.23;;;23.55;79.36
59939;BME280;45801;51.810;19.444;2022-08-23T10:20:12;99075.38;;;23.55;79.74
59939;BME280;45801;51.810;19.444;2022-08-23T10:22:51;99068.42;;;23.53;79.58
59939;BME280;45801;51.810;19.444;2022-08-23T10:31:07;99083.71;;;23.46;80.16
59939;BME280;45801;51.810;19.444;2022-08-23T10:33:58;99094.95;;;23.47;80.12
59939;BME280;45801;51.810;19.444;2022-08-23T10:36:33;99099.95;;;23.47;80.48
59939;BME280;45801;51.810;19.444;2022-08-23T10:39:11;99105.32;;;23.48;80.76
59939;BME280;45801;51.810;19.444;2022-08-23T10:44:39;99115.30;;;23.49;81.03
59939;BME280;45801;51.810;19.444;2022-08-23T10:47:33;99111.37;;;23.50;81.09
59939;BME280;45801;51.810;19.444;2022-08-23T10:50:21;99108.16;;;23.49;81.25
59939;BME280;45801;51.810;19.444;2022-08-23T10:53:04;99109.23;;;23.49;81.46
59939;BME280;45801;51.810;19.444;2022-08-23T10:55:37;99098.53;;;23.47;81.64
59939;BME280;45801;51.810;19.444;2022-08-23T10:58:25;99090.02;;;23.41;81.50
59939;BME280;45801;51.810;19.444;2022-08-23T11:00:53;99088.45;;;23.37;81.29
59939;BME280;45801;51.810;19.444;2022-08-23T11:14:11;99097.52;;;23.41;81.13
59939;BME280;45801;51.810;19.444;2022-08-23T11:16:38;99090.56;;;23.39;80.81
59939;BME280;45801;51.810;19.444;2022-08-23T11:19:13;99086.02;;;23.31;80.69
59939;BME280;45801;51.810;19.444;2022-08-23T11:22:17;99080.20;;;23.22;80.84
59939;BME280;45801;51.810;19.444;2022-08-23T11:27:34;99092.84;;;23.07;81.58
59939;BME280;45801;51.810;19.444;2022-08-23T11:34:02;99093.96;;;23.00;81.85
59939;BME280;45801;51.810;19.444;2022-08-23T11:43:47;99085.39;;;22.81;82.32
59939;BME280;45801;51.810;19.444;2022-08-23T11:52:10;99065.11;;;22.73;82.38
59939;BME280;45801;51.810;19.444;2022-08-23T11:54:53;99057.10;;;22.68;83.07
59939;BME280;45801;51.810;19.444;2022-08-23T11:57:47;99055.50;;;22.67;82.91
59939;BME280;45801;51.810;19.444;2022-08-23T12:03:05;99061.59;;;22.65;83.34
59939;BME280;45801;51.810;19.444;2022-08-23T12:18:52;99083.38;;;22.85;81.75
59939;BME280;45801;51.810;19.444;2022-08-23T12:24:32;99086.96;;;23.05;81.31
59939;BME280;45801;51.810;19.444;2022-08-23T12:29:43;99080.06;;;23.20;79.48
59939;BME280;45801;51.810;19.444;2022-08-23T12:40:35;99073.55;;;23.57;78.96
59939;BME280;45801;51.810;19.444;2022-08-23T12:43:17;99071.80;;;23.70;78.97
59939;BME280;45801;51.810;19.444;2022-08-23T12:45:48;99069.48;;;23.83;79.01
59939;BME280;45801;51.810;19.444;2022-08-23T12:48:18;99066.00;;;23.92;78.05
59939;BME280;45801;51.810;19.444;2022-08-23T12:50:52;99062.31;;;24.00;78.40
59939;BME280;45801;51.810;19.444;2022-08-23T12:53:30;99058.04;;;24.11;77.89
59939;BME280;45801;51.810;19.444;2022-08-23T12:56:04;99060.27;;;24.18;77.70
59939;BME280;45801;51.810;19.444;2022-08-23T12:58:33;99059.97;;;24.26;77.75
59939;BME280;45801;51.810;19.444;2022-08-23T13:01:07;99062.56;;;24.32;77.34
59939;BME280;45801;51.810;19.444;2022-08-23T13:03:44;99060.36;;;24.37;77.00
59939;BME280;45801;51.810;19.444;2022-08-23T13:06:14;99061.20;;;24.39;76.38
59939;BME280;45801;51.810;19.444;2022-08-23T13:08:44;99061.31;;;24.32;75.22
59939;BME280;45801;51.810;19.444;2022-08-23T13:11:18;99061.98;;;24.23;75.27
59939;BME280;45801;51.810;19.444;2022-08-23T13:13:46;99058.54;;;24.14;75.80
59939;BME280;45801;51.810;19.444;2022-08-23T13:16:31;99057.90;;;24.09;76.57
59939;BME280;45801;51.810;19.444;2022-08-23T13:19:22;99051.77;;;23.99;75.43
59939;BME280;45801;51.810;19.444;2022-08-23T13:24:38;99046.48;;;23.77;75.29
59939;BME280;45801;51.810;19.444;2022-08-23T13:27:22;99043.30;;;23.75;76.46
59939;BME280;45801;51.810;19.444;2022-08-23T13:29:57;99042.39;;;23.77;76.69
59939;BME280;45801;51.810;19.444;2022-08-23T13:34:52;99030.44;;;23.74;75.46
59939;BME280;45801;51.810;19.444;2022-08-23T13:37:27;99025.34;;;23.67;74.79
59939;BME280;45801;51.810;19.444;2022-08-23T13:39:57;99020.05;;;23.62;75.75
59939;BME280;45801;51.810;19.444;2022-08-23T13:42:44;99012.71;;;23.62;76.22
59939;BME280;45801;51.810;19.444;2022-08-23T13:45:26;99004.48;;;23.63;75.54
59939;BME280;45801;51.810;19.444;2022-08-23T13:50:27;98992.84;;;23.64;76.01
59939;BME280;45801;51.810;19.444;2022-08-23T13:52:54;98989.08;;;23.65;76.35
59939;BME280;45801;51.810;19.444;2022-08-23T13:55:21;98995.48;;;23.68;76.52
59939;BME280;45801;51.810;19.444;2022-08-23T13:57:48;99006.16;;;23.70;76.48
59939;BME280;45801;51.810;19.444;2022-08-23T14:00:14;99014.54;;;23.73;76.19
59939;BME280;45801;51.810;19.444;2022-08-23T14:02:40;99027.17;;;23.77;76.03
59939;BME280;45801;51.810;19.444;2022-08-23T14:05:07;99034.82;;;23.81;76.30
59939;BME280;45801;51.810;19.444;2022-08-23T14:07:34;99048.20;;;23.86;76.26
59939;BME280;45801;51.810;19.444;2022-08-23T14:09:59;99062.84;;;23.88;76.43
59939;BME280;45801;51.810;19.444;2022-08-23T14:12:28;99078.73;;;23.90;75.96
59939;BME280;45801;51.810;19.444;2022-08-23T14:15:00;99084.79;;;23.92;76.05
59939;BME280;45801;51.810;19.444;2022-08-23T14:17:27;99087.81;;;23.92;76.33
59939;BME280;45801;51.810;19.444;2022-08-23T14:19:53;99093.35;;;23.94;76.23
59939;BME280;45801;51.810;19.444;2022-08-23T14:22:18;99102.83;;;23.94;76.42
59939;BME280;45801;51.810;19.444;2022-08-23T14:24:45;99106.74;;;23.95;76.67
59939;BME280;45801;51.810;19.444;2022-08-23T14:27:11;99103.56;;;23.92;75.86
59939;BME280;45801;51.810;19.444;2022-08-23T14:29:36;99093.42;;;23.87;75.82
59939;BME280;45801;51.810;19.444;2022-08-23T14:32:03;99093.66;;;23.80;76.18
59939;BME280;45801;51.810;19.444;2022-08-23T14:34:29;99091.05;;;23.75;76.00
59939;BME280;45801;51.810;19.444;2022-08-23T14:36:57;99087.55;;;23.69;75.79
59939;BME280;45801;51.810;19.444;2022-08-23T14:39:23;99084.41;;;23.62;75.06
59939;BME280;45801;51.810;19.444;2022-08-23T14:41:49;99086.64;;;23.55;75.19